createdAt,value
2022-11-17T00:02:09.947Z,3.50
2022-11-17T00:04:37.561Z,3.00
2022-11-17T00:07:05.256Z,3.70
2022-11-17T00:09:33.059Z,2.77
2022-11-17T00:12:22.746Z,3.10
2022-11-17T00:14:52.042Z,3.03
2022-11-17T00:17:19.695Z,3.00
2022-11-17T00:20:04.886Z,2.97
2022-11-17T00:22:33.072Z,2.70
2022-11-17T00:25:00.729Z,2.63
2022-11-17T00:27:29.918Z,2.87
2022-11-17T00:29:57.791Z,2.30
2022-11-17T00:32:42.947Z,2.47
2022-11-17T00:35:10.623Z,3.10
2022-11-17T00:37:59.941Z,3.20
2022-11-17T00:40:27.777Z,3.00
2022-11-17T00:42:56.829Z,2.63
2022-11-17T00:45:24.522Z,3.00
2022-11-17T00:47:52.184Z,3.00
2022-11-17T00:50:19.806Z,2.90
2022-11-17T00:52:47.544Z,2.50
2022-11-17T00:55:15.668Z,3.10
2022-11-17T00:57:43.371Z,3.17
2022-11-17T01:00:13.434Z,2.53
2022-11-17T01:02:41.178Z,2.70
2022-11-17T01:05:09.312Z,3.37
2022-11-17T01:07:37.047Z,2.83
2022-11-17T01:10:05.147Z,3.17
2022-11-17T01:12:32.728Z,3.13
2022-11-17T01:15:00.472Z,5.20
2022-11-17T01:17:29.592Z,3.13
2022-11-17T01:19:57.272Z,3.10
2022-11-17T01:22:24.909Z,2.90
2022-11-17T01:24:52.582Z,3.40
2022-11-17T01:27:20.241Z,3.40
2022-11-17T01:29:47.983Z,3.30
2022-11-17T01:32:15.694Z,2.63
2022-11-17T01:34:44.772Z,3.33
2022-11-17T01:37:21.559Z,2.90
2022-11-17T01:39:51.714Z,2.30
2022-11-17T01:42:21.792Z,2.43
2022-11-17T01:45:01.592Z,2.20
2022-11-17T01:47:36.219Z,2.10
2022-11-17T01:50:10.650Z,2.67
2022-11-17T01:52:40.890Z,2.40
2022-11-17T01:55:10.978Z,2.10
2022-11-17T01:57:41.738Z,2.20
2022-11-17T02:00:11.993Z,2.13
2022-11-17T02:02:42.141Z,2.73
2022-11-17T02:05:32.061Z,2.13
2022-11-17T02:08:04.345Z,2.10
2022-11-17T02:10:32.986Z,2.43
2022-11-17T02:13:02.140Z,2.27
2022-11-17T02:15:31.131Z,2.13
2022-11-17T02:18:00.369Z,2.50
2022-11-17T02:20:44.480Z,2.17
2022-11-17T02:23:45.742Z,2.20
2022-11-17T02:26:32.327Z,1.93
2022-11-17T02:29:12.923Z,2.10
2022-11-17T02:31:47.029Z,1.57
2022-11-17T02:34:26.086Z,2.20
2022-11-17T02:36:59.258Z,2.07
2022-11-17T02:39:34.249Z,2.00
2022-11-17T02:42:09.529Z,1.93
2022-11-17T02:44:43.366Z,1.53
2022-11-17T02:47:16.792Z,1.70
2022-11-17T02:49:48.776Z,1.60
2022-11-17T02:52:18.966Z,1.20
2022-11-17T02:54:46.786Z,1.47
2022-11-17T02:57:30.878Z,1.23
2022-11-17T03:00:02.680Z,1.40
2022-11-17T03:02:56.738Z,1.40
2022-11-17T03:05:30.873Z,1.70
2022-11-17T03:08:10.342Z,1.60
2022-11-17T03:10:49.875Z,1.43
2022-11-17T03:13:21.936Z,1.57
2022-11-17T03:15:56.117Z,1.77
2022-11-17T03:18:30.694Z,1.70
2022-11-17T03:21:11.110Z,1.83
2022-11-17T03:23:45.477Z,1.40
2022-11-17T03:26:17.860Z,1.93
2022-11-17T03:28:47.857Z,1.70
2022-11-17T03:31:19.023Z,1.70
2022-11-17T03:33:50.816Z,1.70
2022-11-17T03:36:23.597Z,1.73
2022-11-17T03:38:59.279Z,1.70
2022-11-17T03:41:29.706Z,1.40
2022-11-17T03:43:58.672Z,1.43
2022-11-17T03:46:29.731Z,1.50
2022-11-17T03:49:04.741Z,1.67
2022-11-17T03:51:33.810Z,1.90
2022-11-17T03:54:02.085Z,1.87
2022-11-17T03:56:38.497Z,1.60
2022-11-17T03:59:14.843Z,1.87
2022-11-17T04:01:43.972Z,1.43
2022-11-17T04:04:15.890Z,1.53
2022-11-17T04:06:43.806Z,1.27
2022-11-17T04:09:11.644Z,1.50
2022-11-17T04:11:57.056Z,1.70
2022-11-17T04:14:42.391Z,1.77
2022-11-17T04:17:11.676Z,1.73
2022-11-17T04:19:39.396Z,1.50
2022-11-17T04:22:07.077Z,1.67
2022-11-17T04:24:34.843Z,1.67
2022-11-17T04:27:20.244Z,2.00
2022-11-17T04:29:47.968Z,1.40
2022-11-17T04:32:16.992Z,1.90
2022-11-17T04:34:44.765Z,1.50
2022-11-17T04:37:17.492Z,1.70
2022-11-17T04:39:45.931Z,1.70
2022-11-17T04:42:12.667Z,2.27
2022-11-17T04:44:40.454Z,1.33
2022-11-17T04:47:08.085Z,1.67
2022-11-17T04:49:37.069Z,1.63
2022-11-17T04:52:05.081Z,2.17
2022-11-17T04:54:32.734Z,1.43
2022-11-17T04:57:00.433Z,1.63
2022-11-17T04:59:28.128Z,1.40
2022-11-17T05:01:57.843Z,1.60
2022-11-17T05:04:46.273Z,1.93
2022-11-17T05:07:15.347Z,1.27
2022-11-17T05:09:43.037Z,1.50
2022-11-17T05:12:28.498Z,1.43
2022-11-17T05:14:56.115Z,1.63
2022-11-17T05:17:22.775Z,1.73
2022-11-17T05:19:50.459Z,1.90
2022-11-17T05:22:40.544Z,1.40
2022-11-17T05:25:09.076Z,1.60
2022-11-17T05:27:37.272Z,1.53
2022-11-17T05:30:07.205Z,1.40
2022-11-17T05:32:35.093Z,1.97
2022-11-17T05:35:03.086Z,1.67
2022-11-17T05:37:32.090Z,1.27
2022-11-17T05:39:59.817Z,1.30
2022-11-17T05:42:27.539Z,1.57
2022-11-17T05:44:55.229Z,1.40
2022-11-17T05:47:23.048Z,1.37
2022-11-17T05:49:50.736Z,1.30
2022-11-17T05:52:18.402Z,1.60
2022-11-17T05:54:47.458Z,1.30
2022-11-17T05:57:20.950Z,1.63
2022-11-17T05:59:52.659Z,1.20
2022-11-17T06:02:25.124Z,1.70
2022-11-17T06:04:53.049Z,1.53
2022-11-17T06:07:21.151Z,1.47
2022-11-17T06:09:51.127Z,1.63
2022-11-17T06:12:19.007Z,1.50
2022-11-17T06:14:46.672Z,1.50
2022-11-17T06:17:22.751Z,1.90
2022-11-17T06:19:55.404Z,1.60
2022-11-17T06:22:23.375Z,1.33
2022-11-17T06:24:52.422Z,1.57
2022-11-17T06:27:20.126Z,1.97
2022-11-17T06:29:48.634Z,1.70
2022-11-17T06:32:18.647Z,1.77
2022-11-17T06:34:55.151Z,1.23
2022-11-17T06:37:23.836Z,3.10
2022-11-17T06:39:52.926Z,4.73
2022-11-17T06:42:40.601Z,2.63
2022-11-17T06:45:09.382Z,1.60
2022-11-17T06:47:37.052Z,1.40
2022-11-17T06:50:05.641Z,1.80
2022-11-17T06:52:33.346Z,1.93
2022-11-17T06:55:02.448Z,2.10
2022-11-17T06:57:30.979Z,1.80
2022-11-17T06:59:58.784Z,1.47
2022-11-17T07:02:26.466Z,1.57
2022-11-17T07:04:54.193Z,1.80
2022-11-17T07:07:22.007Z,1.83
2022-11-17T07:09:49.809Z,1.90
2022-11-17T07:12:18.908Z,1.60
2022-11-17T07:14:46.702Z,1.97
2022-11-17T07:17:14.449Z,2.00
2022-11-17T07:19:42.229Z,1.80
2022-11-17T07:22:10.017Z,1.43
2022-11-17T07:24:37.710Z,1.73
2022-11-17T07:27:06.588Z,1.80
2022-11-17T07:29:36.576Z,1.70
2022-11-17T07:32:05.511Z,1.70
2022-11-17T07:34:33.225Z,1.60
2022-11-17T07:37:00.955Z,1.60
2022-11-17T07:39:28.622Z,1.30
2022-11-17T07:41:56.323Z,1.50
2022-11-17T07:44:24.081Z,1.63
2022-11-17T07:46:53.114Z,1.70
2022-11-17T07:49:20.838Z,1.47
2022-11-17T07:51:48.600Z,1.53
2022-11-17T07:54:16.394Z,1.20
2022-11-17T07:56:44.123Z,1.60
2022-11-17T07:59:13.355Z,1.50
2022-11-17T08:01:43.756Z,1.80
2022-11-17T08:04:12.809Z,1.40
2022-11-17T08:06:40.558Z,1.63
2022-11-17T08:09:10.672Z,1.40
2022-11-17T08:11:38.357Z,1.63
2022-11-17T08:14:06.272Z,2.40
2022-11-17T08:16:34.089Z,1.50
2022-11-17T08:19:01.815Z,1.67
2022-11-17T08:21:30.919Z,1.70
2022-11-17T08:24:00.186Z,1.57
2022-11-17T08:26:28.211Z,1.57
2022-11-17T08:28:58.827Z,1.47
2022-11-17T08:31:26.805Z,1.77
2022-11-17T08:33:54.554Z,2.00
2022-11-17T08:36:22.303Z,1.70
2022-11-17T08:38:51.365Z,1.93
2022-11-17T08:41:19.849Z,1.77
2022-11-17T08:43:47.592Z,1.87
2022-11-17T08:46:15.492Z,2.67
2022-11-17T08:48:43.256Z,2.10
2022-11-17T08:51:13.175Z,2.60
2022-11-17T08:53:40.878Z,2.20
2022-11-17T08:56:12.444Z,2.40
2022-11-17T08:58:40.796Z,2.13
2022-11-17T09:01:09.715Z,1.93
2022-11-17T09:03:37.889Z,1.90
2022-11-17T09:06:06.481Z,1.60
2022-11-17T09:08:49.608Z,1.57
2022-11-17T09:11:18.764Z,1.40
2022-11-17T09:13:47.199Z,2.03
2022-11-17T09:16:16.377Z,1.27
2022-11-17T09:18:44.330Z,2.43
2022-11-17T09:21:15.128Z,3.17
2022-11-17T09:23:43.544Z,2.00
2022-11-17T09:26:13.658Z,1.60
2022-11-17T09:28:43.990Z,2.00
2022-11-17T09:31:13.536Z,2.43
2022-11-17T09:33:42.173Z,1.97
2022-11-17T09:36:10.874Z,1.73
2022-11-17T09:38:39.206Z,2.00
2022-11-17T09:41:27.162Z,1.37
2022-11-17T09:44:14.984Z,1.20
2022-11-17T09:46:58.245Z,2.27
2022-11-17T09:49:36.456Z,1.73
2022-11-17T09:52:11.890Z,1.80
2022-11-17T09:54:44.410Z,1.57
2022-11-17T09:57:22.483Z,1.70
2022-11-17T10:00:03.203Z,2.80
2022-11-17T10:02:31.061Z,1.47
2022-11-17T10:04:58.846Z,1.20
2022-11-17T10:07:27.667Z,1.83
2022-11-17T10:09:56.220Z,1.80
2022-11-17T10:12:28.291Z,1.00
2022-11-17T10:14:58.233Z,1.50
2022-11-17T10:17:26.013Z,1.37
2022-11-17T10:19:53.706Z,1.07
2022-11-17T10:22:34.425Z,1.43
2022-11-17T10:25:02.107Z,2.30
2022-11-17T10:27:31.985Z,1.27
2022-11-17T10:30:03.201Z,1.30
2022-11-17T10:32:33.771Z,1.37
2022-11-17T10:35:14.997Z,1.40
2022-11-17T10:37:52.145Z,1.50
2022-11-17T10:40:25.417Z,1.20
2022-11-17T10:43:04.498Z,1.43
2022-11-17T10:45:34.830Z,2.20
2022-11-17T10:48:11.368Z,2.07
2022-11-17T10:50:39.145Z,1.20
2022-11-17T10:53:24.938Z,1.33
2022-11-17T10:56:00.862Z,1.20
2022-11-17T10:58:30.562Z,1.60
2022-11-17T11:01:01.317Z,1.03
2022-11-17T11:03:31.110Z,1.43
2022-11-17T11:06:05.204Z,1.47
2022-11-17T11:08:45.625Z,1.30
2022-11-17T11:11:21.922Z,1.70
2022-11-17T11:13:57.274Z,1.20
2022-11-17T11:16:30.211Z,1.20
2022-11-17T11:18:59.092Z,0.90
2022-11-17T11:21:44.382Z,0.77
2022-11-17T11:24:23.897Z,0.90
2022-11-17T11:27:02.073Z,1.53
2022-11-17T11:29:43.510Z,1.30
2022-11-17T11:32:25.111Z,1.20
2022-11-17T11:35:07.331Z,1.60
2022-11-17T11:37:41.348Z,1.23
2022-11-17T11:40:16.342Z,1.27
2022-11-17T11:42:53.924Z,1.10
2022-11-17T11:45:42.642Z,1.43
2022-11-17T11:48:18.442Z,1.13
2022-11-17T11:50:53.699Z,1.13
2022-11-17T11:53:31.111Z,1.10
2022-11-17T11:56:10.250Z,1.50
2022-11-17T11:58:43.627Z,1.50
2022-11-17T12:01:13.123Z,1.30
2022-11-17T12:03:49.986Z,1.57
2022-11-17T12:06:43.168Z,1.10
2022-11-17T12:09:25.382Z,1.23
2022-11-17T12:12:03.553Z,1.63
2022-11-17T12:14:32.880Z,1.93
2022-11-17T12:17:07.477Z,1.83
2022-11-17T12:19:57.208Z,1.90
2022-11-17T12:22:59.580Z,1.80
2022-11-17T12:25:30.357Z,1.60
2022-11-17T12:27:58.071Z,1.87
2022-11-17T12:30:55.150Z,1.10
2022-11-17T12:33:23.809Z,1.37
2022-11-17T12:36:30.798Z,1.23
2022-11-17T12:39:01.033Z,1.30
2022-11-17T12:42:06.784Z,1.80
2022-11-17T12:44:44.562Z,1.37
2022-11-17T12:47:18.140Z,1.27
2022-11-17T12:49:57.302Z,1.40
2022-11-17T12:52:36.131Z,1.80
2022-11-17T12:55:14.393Z,2.07
2022-11-17T12:57:45.205Z,1.50
2022-11-17T13:00:19.177Z,2.70
2022-11-17T13:03:00.095Z,1.77
2022-11-17T13:05:30.445Z,1.80
2022-11-17T13:08:21.295Z,2.00
2022-11-17T13:10:49.130Z,1.67
2022-11-17T13:13:19.376Z,2.37
2022-11-17T13:15:50.982Z,2.00
2022-11-17T13:18:33.034Z,2.13
2022-11-17T13:21:01.736Z,2.33
2022-11-17T13:23:32.961Z,1.97
2022-11-17T13:26:11.663Z,1.93
2022-11-17T13:28:39.407Z,2.40
2022-11-17T13:31:07.679Z,1.47
2022-11-17T13:33:39.986Z,2.10
2022-11-17T13:36:19.795Z,2.33
2022-11-17T13:38:50.621Z,1.37
2022-11-17T13:41:20.093Z,1.97
2022-11-17T13:43:48.699Z,2.00
2022-11-17T13:46:19.926Z,1.60
2022-11-17T13:48:54.015Z,1.80
2022-11-17T13:51:33.285Z,1.40
2022-11-17T13:54:05.236Z,1.57
2022-11-17T13:56:36.280Z,1.57
2022-11-17T13:59:10.475Z,1.10
2022-11-17T14:01:38.224Z,0.80
2022-11-17T14:04:20.346Z,1.20
2022-11-17T14:06:57.033Z,2.03
2022-11-17T14:09:30.740Z,2.03
2022-11-17T14:12:01.831Z,1.40
2022-11-17T14:14:35.914Z,1.97
2022-11-17T14:17:13.416Z,1.17
2022-11-17T14:19:41.761Z,1.37
2022-11-17T14:22:30.954Z,1.03
2022-11-17T14:25:00.986Z,0.87
2022-11-17T14:27:41.654Z,2.00
2022-11-17T14:30:15.773Z,1.17
2022-11-17T14:32:44.223Z,1.23
2022-11-17T14:35:15.105Z,1.07
2022-11-17T14:37:43.226Z,1.10
2022-11-17T14:40:17.594Z,1.10
2022-11-17T14:42:45.603Z,1.47
2022-11-17T14:45:15.099Z,1.10
2022-11-17T14:47:43.553Z,0.83
2022-11-17T14:50:14.058Z,1.23
2022-11-17T14:52:42.503Z,1.60
2022-11-17T14:55:10.665Z,1.80
2022-11-17T14:57:40.493Z,1.40
2022-11-17T15:00:14.578Z,1.30
2022-11-17T15:02:45.135Z,1.43
2022-11-17T15:05:13.600Z,1.20
2022-11-17T15:07:42.510Z,1.00
2022-11-17T15:10:11.345Z,1.10
2022-11-17T15:12:40.487Z,0.70
2022-11-17T15:15:09.019Z,1.03
2022-11-17T15:17:39.768Z,1.13
2022-11-17T15:20:12.042Z,0.90
2022-11-17T15:22:39.985Z,0.93
2022-11-17T15:25:10.891Z,0.87
2022-11-17T15:27:39.944Z,1.43
2022-11-17T15:30:09.208Z,1.80
2022-11-17T15:32:39.853Z,1.70
2022-11-17T15:35:09.525Z,1.40
2022-11-17T15:37:37.404Z,1.13
2022-11-17T15:40:06.124Z,1.50
2022-11-17T15:42:33.933Z,1.60
2022-11-17T15:45:02.973Z,1.97
2022-11-17T15:47:30.673Z,1.10
2022-11-17T15:49:59.019Z,1.50
2022-11-17T15:52:48.840Z,0.90
2022-11-17T15:55:14.755Z,0.57
2022-11-17T15:57:42.449Z,1.17
2022-11-17T16:00:13.627Z,0.80
2022-11-17T16:02:42.012Z,1.43
2022-11-17T16:05:10.170Z,0.80
2022-11-17T16:07:38.050Z,1.10
2022-11-17T16:10:06.531Z,1.00
2022-11-17T16:12:34.326Z,1.20
2022-11-17T16:15:01.988Z,0.97
2022-11-17T16:17:31.216Z,1.40
2022-11-17T16:19:59.183Z,1.27
2022-11-17T16:22:27.127Z,1.20
2022-11-17T16:24:54.874Z,1.00
2022-11-17T16:27:22.625Z,1.70
2022-11-17T16:29:50.360Z,1.60
2022-11-17T16:32:18.253Z,2.13
2022-11-17T16:34:49.002Z,2.90
2022-11-17T16:37:17.263Z,3.67
2022-11-17T16:39:45.036Z,3.07
2022-11-17T16:42:12.776Z,2.73
2022-11-17T16:44:40.569Z,2.80
2022-11-17T16:47:08.338Z,3.20
2022-11-17T16:49:36.642Z,2.43
2022-11-17T16:52:05.727Z,3.10
2022-11-17T16:54:33.798Z,3.60
2022-11-17T16:57:01.534Z,2.80
2022-11-17T16:59:29.416Z,3.37
2022-11-17T17:01:57.244Z,3.80
2022-11-17T17:04:25.044Z,4.50
2022-11-17T17:06:52.872Z,9.50
2022-11-17T17:09:27.646Z,6.97
2022-11-17T17:11:55.762Z,6.43
2022-11-17T17:14:23.707Z,3.40
2022-11-17T17:16:51.564Z,3.37
2022-11-17T17:19:19.437Z,3.40
2022-11-17T17:21:47.310Z,3.53
2022-11-17T17:24:15.229Z,3.57
2022-11-17T17:26:44.588Z,4.00
2022-11-17T17:29:13.277Z,5.03
2022-11-17T17:31:42.709Z,4.97
2022-11-17T17:34:12.936Z,4.60
2022-11-17T17:36:40.819Z,3.37
2022-11-17T17:39:08.782Z,3.23
2022-11-17T17:41:40.773Z,2.97
2022-11-17T17:44:15.084Z,3.50
2022-11-17T17:46:43.656Z,4.07
2022-11-17T17:49:11.434Z,3.60
2022-11-17T17:51:42.201Z,3.73
2022-11-17T17:54:15.550Z,5.00
2022-11-17T17:56:43.484Z,3.73
2022-11-17T17:59:13.364Z,4.97
2022-11-17T18:01:42.255Z,3.43
2022-11-17T18:04:15.482Z,3.53
2022-11-17T18:06:46.227Z,2.90
2022-11-17T18:09:15.667Z,3.63
2022-11-17T18:11:47.999Z,3.97
2022-11-17T18:14:20.335Z,3.60
2022-11-17T18:16:48.153Z,3.50
2022-11-17T18:19:17.318Z,3.40
2022-11-17T18:21:45.701Z,4.00
2022-11-17T18:24:14.163Z,2.60
2022-11-17T18:26:42.308Z,2.77
2022-11-17T18:29:16.096Z,2.50
2022-11-17T18:31:47.387Z,2.40
2022-11-17T18:34:17.176Z,3.07
2022-11-17T18:36:44.838Z,2.60
2022-11-17T18:39:12.828Z,3.00
2022-11-17T18:41:40.679Z,3.50
2022-11-17T18:44:08.473Z,3.70
2022-11-17T18:46:36.164Z,3.23
2022-11-17T18:49:05.307Z,3.50
2022-11-17T18:51:34.165Z,3.70
2022-11-17T18:54:02.822Z,3.70
2022-11-17T18:56:34.186Z,4.80
2022-11-17T18:59:03.673Z,4.50
2022-11-17T19:01:31.892Z,4.83
2022-11-17T19:04:01.258Z,6.70
2022-11-17T19:06:31.382Z,6.13
2022-11-17T19:09:00.287Z,6.63
2022-11-17T19:11:30.756Z,6.27
2022-11-17T19:14:02.091Z,7.27
2022-11-17T19:16:30.320Z,6.60
2022-11-17T19:18:59.244Z,7.70
2022-11-17T19:21:28.494Z,6.60
2022-11-17T19:24:00.924Z,6.60
2022-11-17T19:26:30.150Z,8.03
2022-11-17T19:28:59.530Z,8.00
2022-11-17T19:31:28.206Z,8.67
2022-11-17T19:33:57.772Z,6.40
2022-11-17T19:36:27.313Z,6.87
2022-11-17T19:38:59.063Z,7.60
2022-11-17T19:41:28.963Z,8.03
2022-11-17T19:43:58.352Z,8.53
2022-11-17T19:46:27.693Z,8.83
2022-11-17T19:48:56.314Z,8.23
2022-11-17T19:51:26.130Z,7.20
2022-11-17T19:53:55.661Z,7.20
2022-11-17T19:56:26.697Z,7.27
2022-11-17T19:58:55.664Z,7.03
2022-11-17T20:01:25.015Z,6.40
2022-11-17T20:03:53.154Z,6.43
2022-11-17T20:06:23.006Z,6.83
2022-11-17T20:08:51.121Z,6.33
2022-11-17T20:11:20.744Z,6.83
2022-11-17T20:13:50.365Z,6.27
2022-11-17T20:16:19.686Z,5.67
2022-11-17T20:18:51.035Z,5.30
2022-11-17T20:21:19.196Z,5.43
2022-11-17T20:23:47.595Z,5.30
2022-11-17T20:26:17.654Z,4.90
2022-11-17T20:28:45.809Z,5.47
2022-11-17T20:31:16.700Z,5.90
2022-11-17T20:33:45.074Z,5.33
2022-11-17T20:36:15.268Z,5.47
2022-11-17T20:38:43.143Z,6.47
2022-11-17T20:41:11.435Z,5.83
2022-11-17T20:43:39.124Z,5.47
2022-11-17T20:46:07.281Z,5.90
2022-11-17T20:48:36.970Z,6.10
2022-11-17T20:51:07.129Z,6.50
2022-11-17T20:53:35.323Z,5.07
2022-11-17T20:56:05.144Z,5.37
2022-11-17T20:58:33.185Z,5.13
2022-11-17T21:01:07.550Z,4.50
2022-11-17T21:03:37.286Z,4.27
2022-11-17T21:06:06.702Z,4.53
2022-11-17T21:08:36.411Z,4.90
2022-11-17T21:11:09.610Z,5.23
2022-11-17T21:13:38.849Z,5.27
2022-11-17T21:16:08.938Z,5.30
2022-11-17T21:18:39.952Z,4.97
2022-11-17T21:21:09.632Z,5.00
2022-11-17T21:23:37.998Z,4.13
2022-11-17T21:26:06.892Z,5.10
2022-11-17T21:28:34.727Z,4.57
2022-11-17T21:31:08.168Z,4.80
2022-11-17T21:33:36.187Z,4.20
2022-11-17T21:36:07.114Z,4.70
2022-11-17T21:38:34.925Z,4.80
2022-11-17T21:41:03.859Z,4.13
2022-11-17T21:43:31.966Z,5.00
2022-11-17T21:46:03.389Z,4.47
2022-11-17T21:48:31.149Z,5.53
2022-11-17T21:50:58.879Z,4.90
2022-11-17T21:53:28.227Z,4.87
2022-11-17T21:56:01.820Z,5.53
2022-11-17T21:58:29.645Z,6.53
2022-11-17T22:00:57.521Z,5.30
2022-11-17T22:03:25.366Z,5.03
2022-11-17T22:05:56.775Z,5.57
2022-11-17T22:08:28.599Z,5.40
2022-11-17T22:10:56.361Z,5.43
2022-11-17T22:13:24.114Z,5.70
2022-11-17T22:15:51.779Z,5.33
2022-11-17T22:18:19.501Z,4.70
2022-11-17T22:20:51.668Z,4.70
2022-11-17T22:23:19.671Z,4.87
2022-11-17T22:25:55.608Z,5.00
2022-11-17T22:28:25.308Z,5.07
2022-11-17T22:30:53.925Z,5.13
2022-11-17T22:33:24.390Z,5.43
2022-11-17T22:35:52.158Z,5.70
2022-11-17T22:38:19.843Z,5.33
2022-11-17T22:40:50.472Z,4.40
2022-11-17T22:43:19.569Z,4.53
2022-11-17T22:45:47.215Z,5.33
2022-11-17T22:48:14.885Z,5.10
2022-11-17T22:50:42.695Z,4.40
2022-11-17T22:53:10.382Z,4.83
2022-11-17T22:55:38.126Z,4.47
2022-11-17T22:58:05.923Z,6.20
2022-11-17T23:00:34.998Z,4.83
2022-11-17T23:03:02.773Z,5.30
2022-11-17T23:05:30.594Z,4.87
2022-11-17T23:07:58.234Z,4.93
2022-11-17T23:10:25.989Z,5.03
2022-11-17T23:12:54.216Z,5.27
2022-11-17T23:15:22.352Z,4.87
2022-11-17T23:17:51.336Z,5.47
2022-11-17T23:20:19.094Z,5.83
2022-11-17T23:22:46.763Z,5.33
2022-11-17T23:25:14.406Z,5.80
2022-11-17T23:27:42.129Z,5.50
2022-11-17T23:30:10.839Z,5.37
2022-11-17T23:32:38.567Z,4.87
2022-11-17T23:35:08.652Z,5.80
2022-11-17T23:37:36.329Z,5.43
2022-11-17T23:40:04.082Z,5.00
2022-11-17T23:42:32.832Z,5.20
2022-11-17T23:45:01.435Z,5.83
2022-11-17T23:47:29.096Z,4.23
2022-11-17T23:49:56.824Z,3.80
2022-11-17T23:52:25.865Z,3.53
2022-11-17T23:54:53.592Z,3.40
2022-11-17T23:57:21.304Z,3.50
2022-11-17T23:59:48.966Z,3.73
